FXMM/MSU METAR and TAF weather

Enter ICAO airport designator
Station Type Date Time Source
FXMM METAR 2019/06/24 13:00 UTC NOAA

FXMM 241300Z VRB02KT CAVOK 15/M08 Q1028 NOSIG


Station Type Date Time Source
FXMM Decoded METAR 2019/06/24 13:00 UTC NOAA

Maseru / Moshoeshoe, Lesotho (FXMM) 29-27S 027-33E
Jun 24, 2019 - 09:00 AM EDT / 2019.06.24 1300 UTC
Wind: Variable at 2 MPH (2 KT):0
Visibility: greater than 7 mile(s):0
Temperature: 59 F (15 C)
Dew Point: 17 F (-8 C)
Relative Humidity: 19%
Pressure (altimeter): 30.36 in. Hg (1028 hPa)
ob: FXMM 241300Z VRB02KT CAVOK 15/M08 Q1028 NOSIG
cycle: 13

Station Type Date Time Source
FXMM TAF 2019/06/19 06:12 UTC NOAA

TAF FXMM 190400Z 1906/2006 00000KT 9999 BKN///
FM190900 36004KT
FM192000 00000KT

Example: see airport list